Time;durP1;ratioP1;P1;durP2;ratioP2;P2;SDS_P1;SDS_P2;PMS_P1;PMS_P2;Temp;Humidity;BMP_temperature;BMP_pressure;BME280_temperature;BME280_humidity;BME280_pressure;Samples;Min_cycle;Max_cycle;Signal;HPM_P1;HPM_P2
2024/02/10 00:02:10;;;;;;;0.50;0.40;;;19.40;55.00;;;;;;5022442;28;20037;-64
2024/02/10 00:04:39;;;;;;;0.88;0.60;;;19.30;54.90;;;;;;5022209;28;20034;-65
2024/02/10 00:07:07;;;;;;;1.45;0.70;;;19.40;55.00;;;;;;5022308;28;20037;-64
2024/02/10 00:09:35;;;;;;;1.35;0.70;;;19.40;55.00;;;;;;5019093;28;20026;-64
2024/02/10 00:12:01;;;;;;;0.90;0.60;;;19.30;54.90;;;;;;5022876;28;20069;-64
2024/02/10 00:14:27;;;;;;;1.20;0.73;;;19.40;55.00;;;;;;5020132;28;20060;-64
2024/02/10 00:16:53;;;;;;;1.17;0.80;;;19.40;55.00;;;;;;5021583;28;20045;-64
2024/02/10 00:19:20;;;;;;;0.70;0.60;;;19.40;55.00;;;;;;5019181;28;20038;-64
2024/02/10 00:21:46;;;;;;;1.67;0.50;;;19.30;54.90;;;;;;5022782;28;20069;-65
2024/02/10 00:24:12;;;;;;;0.45;0.45;;;19.40;55.00;;;;;;5020648;28;20053;-66
2024/02/10 00:26:38;;;;;;;1.73;0.70;;;19.40;55.00;;;;;;5021236;28;20036;-64
2024/02/10 00:29:04;;;;;;;0.90;0.70;;;19.30;54.90;;;;;;5019730;28;20060;-65
2024/02/10 00:31:30;;;;;;;1.00;0.50;;;19.40;55.00;;;;;;5020728;28;20441;-63
2024/02/10 00:33:57;;;;;;;1.52;0.50;;;19.40;55.00;;;;;;5021073;28;20044;-65
2024/02/10 00:36:23;;;;;;;1.00;0.52;;;19.40;55.00;;;;;;5021973;28;20033;-64
2024/02/10 00:38:49;;;;;;;1.13;0.60;;;19.40;55.10;;;;;;5017850;28;20022;-63
2024/02/10 00:41:16;;;;;;;1.20;0.57;;;19.40;55.00;;;;;;5020929;28;20177;-65
2024/02/10 00:43:43;;;;;;;1.02;0.93;;;19.40;55.10;;;;;;5002324;28;20525;-64
2024/02/10 00:46:15;;;;;;;1.15;0.70;;;19.40;55.00;;;;;;5020360;28;20033;-64
2024/02/10 00:48:44;;;;;;;0.82;0.73;;;19.40;55.00;;;;;;5019393;28;20034;-64
2024/02/10 00:51:10;;;;;;;0.80;0.50;;;19.40;55.00;;;;;;5021299;28;21094;-64
2024/02/10 00:53:42;;;;;;;1.02;0.65;;;19.30;55.00;;;;;;5009603;28;20071;-64
2024/02/10 00:56:09;;;;;;;0.93;0.57;;;19.40;55.00;;;;;;5018481;28;20043;-64
2024/02/10 00:58:40;;;;;;;1.25;0.65;;;19.40;55.00;;;;;;5019452;28;20764;-65
2024/02/10 01:01:09;;;;;;;1.08;0.70;;;19.40;55.00;;;;;;5019755;28;20507;-64
2024/02/10 01:03:35;;;;;;;0.75;0.55;;;19.40;55.00;;;;;;5019955;28;20057;-65
2024/02/10 01:06:04;;;;;;;0.80;0.40;;;19.30;55.00;;;;;;5024531;28;20520;-65
2024/02/10 01:08:30;;;;;;;0.95;0.68;;;19.40;55.20;;;;;;5021269;28;20113;-63
2024/02/10 01:10:55;;;;;;;1.40;0.60;;;19.30;55.10;;;;;;5022920;28;20515;-63
2024/02/10 01:13:23;;;;;;;1.08;0.68;;;19.30;55.20;;;;;;5025834;28;20029;-64
2024/02/10 01:15:50;;;;;;;1.02;0.60;;;19.30;55.30;;;;;;5024765;28;20053;-65
2024/02/10 01:18:16;;;;;;;0.50;0.50;;;19.30;55.30;;;;;;5022965;28;20025;-64
2024/02/10 01:20:42;;;;;;;0.77;0.50;;;19.30;55.40;;;;;;5019385;28;20493;-64
2024/02/10 01:23:07;;;;;;;0.90;0.60;;;19.20;55.50;;;;;;5005338;28;20036;-64
2024/02/10 01:25:32;;;;;;;2.10;0.85;;;19.20;55.50;;;;;;5017870;28;20401;-65
2024/02/10 01:27:58;;;;;;;0.75;0.50;;;19.10;55.50;;;;;;5020254;28;20061;-64
2024/02/10 01:30:26;;;;;;;0.60;0.60;;;19.20;55.70;;;;;;5019818;28;20030;-65
2024/02/10 01:32:55;;;;;;;0.80;0.70;;;19.10;55.70;;;;;;5018902;28;20527;-65
2024/02/10 01:35:20;;;;;;;1.02;0.70;;;19.10;55.80;;;;;;5024164;28;20033;-64
2024/02/10 01:37:46;;;;;;;0.93;0.52;;;19.10;55.90;;;;;;5020556;28;20055;-64
2024/02/10 01:40:12;;;;;;;1.00;0.50;;;19.00;55.90;;;;;;5024457;28;20029;-65
2024/02/10 01:42:37;;;;;;;2.08;0.68;;;19.00;55.90;;;;;;5001230;28;20038;-64
2024/02/10 01:45:08;;;;;;;1.65;0.68;;;19.00;55.90;;;;;;5022046;28;20121;-65
2024/02/10 01:47:42;;;;;;;0.60;0.55;;;19.00;55.90;;;;;;5016258;28;20022;-63
2024/02/10 01:50:09;;;;;;;0.80;0.57;;;19.00;55.90;;;;;;5017882;28;20065;-66
2024/02/10 01:52:36;;;;;;;2.25;1.42;;;19.00;56.00;;;;;;5014968;28;20033;-64
2024/02/10 01:55:03;;;;;;;0.68;0.50;;;19.00;56.00;;;;;;5020077;28;20496;-64
2024/02/10 01:57:29;;;;;;;1.23;0.60;;;19.00;55.90;;;;;;5019101;28;20041;-65
2024/02/10 01:59:59;;;;;;;0.80;0.75;;;19.00;56.00;;;;;;5011120;28;20038;-64
2024/02/10 02:02:30;;;;;;;0.63;0.43;;;19.00;55.90;;;;;;5016596;28;20511;-64
2024/02/10 02:05:00;;;;;;;0.88;0.50;;;19.00;55.80;;;;;;5020896;28;20041;-65
2024/02/10 02:07:30;;;;;;;1.23;0.63;;;19.10;55.90;;;;;;5005628;28;20485;-64
2024/02/10 02:09:59;;;;;;;1.10;0.60;;;19.10;55.90;;;;;;5019020;28;20033;-64
2024/02/10 02:12:25;;;;;;;1.13;0.68;;;19.10;55.80;;;;;;5016469;28;20036;-64
2024/02/10 02:14:50;;;;;;;0.50;0.50;;;19.10;55.90;;;;;;5016474;28;20033;-64
2024/02/10 02:17:17;;;;;;;1.00;0.50;;;19.10;55.90;;;;;;5006900;28;20029;-64
2024/02/10 02:19:44;;;;;;;1.65;0.80;;;19.10;55.70;;;;;;5025477;28;20575;-64
2024/02/10 02:22:09;;;;;;;0.65;0.60;;;19.20;55.80;;;;;;5023307;28;20040;-64
2024/02/10 02:24:35;;;;;;;0.75;0.60;;;19.20;55.70;;;;;;5022226;28;20030;-64
2024/02/10 02:27:02;;;;;;;1.15;0.47;;;19.20;55.80;;;;;;5022627;28;20037;-64
2024/02/10 02:29:28;;;;;;;0.82;0.60;;;19.20;55.60;;;;;;5023663;28;20057;-64
2024/02/10 02:31:53;;;;;;;0.88;0.47;;;19.20;55.70;;;;;;5016272;28;20134;-65
2024/02/10 02:34:22;;;;;;;0.82;0.55;;;19.10;55.50;;;;;;5019089;28;20033;-65
2024/02/10 02:36:48;;;;;;;0.57;0.57;;;19.20;55.60;;;;;;5019262;28;20038;-64
2024/02/10 02:39:14;;;;;;;4.75;0.90;;;19.20;55.70;;;;;;5023351;28;20420;-64
2024/02/10 02:41:39;;;;;;;1.38;0.68;;;19.20;55.60;;;;;;5017623;28;20038;-64
2024/02/10 02:44:08;;;;;;;1.00;0.45;;;19.20;55.60;;;;;;5022874;28;20032;-64
2024/02/10 02:46:35;;;;;;;1.52;0.52;;;19.20;55.70;;;;;;5020181;28;20631;-64
2024/02/10 02:49:01;;;;;;;1.75;0.95;;;19.20;55.60;;;;;;5023386;28;20100;-64
2024/02/10 02:51:26;;;;;;;0.50;0.40;;;19.20;55.60;;;;;;5023425;28;20144;-64
2024/02/10 02:53:52;;;;;;;0.57;0.50;;;19.20;55.60;;;;;;5021366;28;20041;-64
2024/02/10 02:56:20;;;;;;;0.88;0.60;;;19.20;55.60;;;;;;5021399;28;20041;-65
2024/02/10 02:58:54;;;;;;;1.55;0.70;;;19.20;55.60;;;;;;5020466;28;20084;-64
2024/02/10 03:01:21;;;;;;;0.80;0.45;;;19.20;55.60;;;;;;5011539;28;20052;-66
2024/02/10 03:03:50;;;;;;;1.63;0.50;;;19.20;55.60;;;;;;5012303;28;20055;-65
2024/02/10 03:06:18;;;;;;;0.50;0.43;;;19.20;55.60;;;;;;5013202;28;20044;-65
2024/02/10 03:08:45;;;;;;;1.38;0.65;;;19.20;56.20;;;;;;5017259;28;20120;-65
2024/02/10 03:11:17;;;;;;;0.63;0.47;;;19.20;55.50;;;;;;5015895;28;20040;-65
2024/02/10 03:13:46;;;;;;;0.80;0.60;;;19.20;55.50;;;;;;5024387;28;20045;-65
2024/02/10 03:16:13;;;;;;;1.10;0.52;;;19.20;55.70;;;;;;5019758;28;20445;-65
2024/02/10 03:18:44;;;;;;;0.57;0.57;;;19.20;55.60;;;;;;5024224;28;20030;-64
2024/02/10 03:21:11;;;;;;;0.63;0.40;;;19.20;55.70;;;;;;4988655;28;20806;-65
2024/02/10 03:23:36;;;;;;;0.85;0.60;;;19.20;55.70;;;;;;5017870;28;20109;-64
2024/02/10 03:26:03;;;;;;;0.52;0.43;;;19.20;55.70;;;;;;5017010;28;20479;-65
2024/02/10 03:28:28;;;;;;;1.23;0.70;;;19.20;55.70;;;;;;5016198;28;20568;-65
2024/02/10 03:30:54;;;;;;;0.45;0.43;;;19.20;55.70;;;;;;5017919;28;20108;-65
2024/02/10 03:33:19;;;;;;;0.70;0.40;;;19.20;55.80;;;;;;5000270;28;20501;-63
2024/02/10 03:35:45;;;;;;;0.47;0.32;;;19.10;55.70;;;;;;5019490;28;20041;-65
2024/02/10 03:38:11;;;;;;;0.70;0.40;;;19.20;55.80;;;;;;5023003;28;20657;-65
2024/02/10 03:40:36;;;;;;;0.88;0.45;;;19.10;55.80;;;;;;5002989;28;20089;-65
2024/02/10 03:43:02;;;;;;;0.40;0.40;;;19.10;55.90;;;;;;5017331;28;20029;-65
2024/02/10 03:45:30;;;;;;;1.40;0.52;;;19.10;55.90;;;;;;5021585;28;20026;-65
2024/02/10 03:48:03;;;;;;;0.95;0.43;;;19.10;55.90;;;;;;5013576;28;20479;-66
2024/02/10 03:50:28;;;;;;;0.80;0.70;;;19.10;55.90;;;;;;5023164;28;20029;-66
2024/02/10 03:52:58;;;;;;;0.90;0.50;;;19.10;55.90;;;;;;5023593;28;20810;-65
2024/02/10 03:55:24;;;;;;;0.40;0.40;;;19.10;55.90;;;;;;5024114;28;20108;-66
2024/02/10 03:57:53;;;;;;;0.63;0.50;;;19.10;55.90;;;;;;5022008;28;20033;-65
2024/02/10 04:00:28;;;;;;;0.50;0.50;;;19.10;55.90;;;;;;5020000;28;20463;-65
2024/02/10 04:02:54;;;;;;;0.95;0.50;;;19.10;56.00;;;;;;5007419;28;20560;-66
2024/02/10 04:05:20;;;;;;;0.77;0.60;;;19.10;56.00;;;;;;5017442;28;20117;-65
2024/02/10 04:07:49;;;;;;;0.38;0.30;;;19.10;55.90;;;;;;5017344;28;21199;-65
2024/02/10 04:10:17;;;;;;;0.55;0.40;;;19.10;56.10;;;;;;5020735;28;20026;-65
2024/02/10 04:12:43;;;;;;;1.15;0.55;;;19.00;55.90;;;;;;5018939;28;20037;-65
2024/02/10 04:15:11;;;;;;;0.55;0.32;;;19.00;56.00;;;;;;5022826;28;20056;-65
2024/02/10 04:17:38;;;;;;;0.75;0.65;;;19.10;56.10;;;;;;5018145;28;20025;-65
2024/02/10 04:20:07;;;;;;;0.57;0.40;;;19.10;56.00;;;;;;5022896;28;20522;-65
2024/02/10 04:22:38;;;;;;;1.65;0.55;;;19.00;56.10;;;;;;5018097;28;20552;-66
2024/02/10 04:25:08;;;;;;;0.65;0.40;;;19.00;56.00;;;;;;5020315;28;20504;-65
2024/02/10 04:27:34;;;;;;;0.45;0.40;;;19.00;56.10;;;;;;5015652;28;20060;-66
2024/02/10 04:30:04;;;;;;;0.60;0.50;;;19.00;56.00;;;;;;5022736;28;20516;-66
2024/02/10 04:32:31;;;;;;;0.52;0.43;;;19.00;56.10;;;;;;5016319;28;20088;-66
2024/02/10 04:34:56;;;;;;;0.60;0.30;;;19.00;56.00;;;;;;5017985;28;20038;-66
2024/02/10 04:37:22;;;;;;;0.80;0.38;;;19.00;56.00;;;;;;5022449;28;20033;-63
2024/02/10 04:39:48;;;;;;;0.60;0.35;;;19.00;56.00;;;;;;5021948;28;20026;-66
2024/02/10 04:42:13;;;;;;;0.52;0.38;;;19.00;56.00;;;;;;5021996;28;20103;-65
2024/02/10 04:44:39;;;;;;;0.30;0.30;;;19.00;56.00;;;;;;5022852;28;20481;-65
2024/02/10 04:47:05;;;;;;;0.75;0.38;;;19.00;56.00;;;;;;5020962;28;20041;-64
2024/02/10 04:49:30;;;;;;;0.40;0.30;;;19.00;56.00;;;;;;5016236;28;20049;-65
2024/02/10 04:51:55;;;;;;;0.30;0.30;;;19.00;56.00;;;;;;5023460;28;20033;-65
2024/02/10 04:54:21;;;;;;;0.38;0.30;;;19.00;56.00;;;;;;5019823;28;20032;-65
2024/02/10 04:56:48;;;;;;;0.50;0.40;;;19.00;56.00;;;;;;5005900;28;20258;-66
2024/02/10 04:59:17;;;;;;;0.30;0.30;;;19.00;56.00;;;;;;5023756;28;20022;-65
2024/02/10 05:01:43;;;;;;;0.47;0.30;;;19.00;56.00;;;;;;5023095;28;20029;-64
2024/02/10 05:04:12;;;;;;;0.40;0.30;;;19.00;56.00;;;;;;5022204;28;20036;-65
2024/02/10 05:06:38;;;;;;;0.50;0.40;;;19.00;56.00;;;;;;5020818;28;20053;-65
2024/02/10 05:09:03;;;;;;;0.50;0.30;;;19.10;56.10;;;;;;5023486;28;20060;-65
2024/02/10 05:11:31;;;;;;;0.50;0.43;;;19.10;56.00;;;;;;5019850;28;20036;-66
2024/02/10 05:13:57;;;;;;;0.70;0.40;;;19.00;55.90;;;;;;5017922;28;20579;-65
2024/02/10 05:16:23;;;;;;;0.88;0.50;;;19.10;56.10;;;;;;5020332;28;20112;-66
2024/02/10 05:18:49;;;;;;;1.27;0.40;;;19.10;55.90;;;;;;5016957;28;20041;-66
2024/02/10 05:21:18;;;;;;;2.00;0.30;;;19.10;55.90;;;;;;5022014;28;20044;-66
2024/02/10 05:23:48;;;;;;;0.47;0.32;;;19.10;55.90;;;;;;5017835;28;20108;-65
2024/02/10 05:26:16;;;;;;;0.98;0.32;;;19.10;55.90;;;;;;5022118;28;20505;-65
2024/02/10 05:28:42;;;;;;;0.90;0.50;;;19.10;56.00;;;;;;5016605;28;20603;-64
2024/02/10 05:31:07;;;;;;;0.85;0.50;;;19.10;55.90;;;;;;5021000;28;20033;-65
2024/02/10 05:33:33;;;;;;;1.38;0.40;;;19.10;55.90;;;;;;5020457;28;20029;-65
2024/02/10 05:35:58;;;;;;;0.95;0.47;;;19.10;55.90;;;;;;5021375;28;20058;-66
2024/02/10 05:38:24;;;;;;;0.30;0.30;;;19.10;55.90;;;;;;5019334;28;20710;-65
2024/02/10 05:40:49;;;;;;;0.30;0.30;;;19.10;55.90;;;;;;5019942;28;20025;-65
2024/02/10 05:43:15;;;;;;;1.00;0.50;;;19.10;55.90;;;;;;5015192;28;20929;-64
2024/02/10 05:45:40;;;;;;;0.40;0.30;;;19.10;55.90;;;;;;5020140;28;20069;-65
2024/02/10 05:48:06;;;;;;;1.17;0.40;;;19.10;55.90;;;;;;5017302;28;20099;-65
2024/02/10 05:50:32;;;;;;;0.70;0.32;;;19.10;55.90;;;;;;5017366;28;20613;-65
2024/02/10 05:52:59;;;;;;;3.67;0.40;;;19.10;55.90;;;;;;5017785;28;20571;-65
2024/02/10 05:55:27;;;;;;;0.70;0.38;;;19.10;55.80;;;;;;5018371;28;20033;-65
2024/02/10 05:57:55;;;;;;;0.98;0.40;;;19.10;55.80;;;;;;5016561;28;20052;-65
2024/02/10 06:00:23;;;;;;;0.47;0.30;;;19.10;55.70;;;;;;5017085;28;20484;-65
2024/02/10 06:02:49;;;;;;;0.40;0.30;;;19.10;55.80;;;;;;5022173;28;22245;-65
2024/02/10 06:05:15;;;;;;;0.93;0.40;;;19.10;55.80;;;;;;5017467;28;20633;-65
2024/02/10 06:07:42;;;;;;;0.60;0.47;;;19.20;55.80;;;;;;5023493;28;20018;-66
2024/02/10 06:10:09;;;;;;;0.65;0.30;;;19.10;55.70;;;;;;5019786;28;20120;-64
2024/02/10 06:12:39;;;;;;;0.90;0.30;;;19.20;55.80;;;;;;5022024;28;20045;-65
2024/02/10 06:15:06;;;;;;;0.57;0.32;;;19.10;55.80;;;;;;5020357;28;20392;-65
2024/02/10 06:17:34;;;;;;;0.30;0.30;;;19.20;55.70;;;;;;5021210;28;20108;-65
2024/02/10 06:20:05;;;;;;;1.75;0.40;;;19.20;55.80;;;;;;5021412;28;20037;-65
2024/02/10 06:22:32;;;;;;;0.70;0.60;;;19.20;55.70;;;;;;5017237;28;20033;-64
2024/02/10 06:24:58;;;;;;;1.45;0.45;;;19.20;55.70;;;;;;5022546;28;20575;-66
2024/02/10 06:27:23;;;;;;;0.40;0.38;;;19.20;55.70;;;;;;5025028;28;20084;-65
2024/02/10 06:29:49;;;;;;;0.30;0.30;;;19.20;55.70;;;;;;5020344;28;20046;-65
2024/02/10 06:32:14;;;;;;;0.95;0.60;;;19.20;55.70;;;;;;5026070;28;20099;-65
2024/02/10 06:34:42;;;;;;;1.00;0.52;;;19.20;55.70;;;;;;5020582;28;20030;-65
2024/02/10 06:37:08;;;;;;;0.52;0.40;;;19.20;55.70;;;;;;5025955;28;20550;-65
2024/02/10 06:39:34;;;;;;;0.95;0.38;;;19.20;55.70;;;;;;5024939;28;20033;-65
2024/02/10 06:42:00;;;;;;;0.63;0.50;;;19.20;55.70;;;;;;5026653;28;20033;-66
2024/02/10 06:44:27;;;;;;;0.85;0.40;;;19.20;55.70;;;;;;5026349;28;20548;-65
2024/02/10 06:46:53;;;;;;;0.45;0.43;;;19.20;55.60;;;;;;5026833;28;20377;-66
2024/02/10 06:49:20;;;;;;;0.63;0.30;;;19.20;55.70;;;;;;5026799;28;20041;-65
2024/02/10 06:51:48;;;;;;;2.25;0.82;;;19.20;56.30;;;;;;5027248;28;20036;-65
2024/02/10 06:54:14;;;;;;;1.27;0.68;;;19.20;55.70;;;;;;5021753;28;20030;-65
2024/02/10 06:56:39;;;;;;;0.68;0.50;;;19.20;55.70;;;;;;5024319;28;20101;-65
2024/02/10 06:59:05;;;;;;;0.93;0.40;;;19.20;55.70;;;;;;5025594;28;20105;-65
2024/02/10 07:01:32;;;;;;;0.40;0.40;;;19.20;55.70;;;;;;5024880;28;20022;-63
2024/02/10 07:03:58;;;;;;;0.93;0.68;;;19.20;55.80;;;;;;5024904;28;20496;-65
2024/02/10 07:06:28;;;;;;;0.55;0.30;;;19.20;55.70;;;;;;5024598;28;20052;-65
2024/02/10 07:08:53;;;;;;;1.00;0.50;;;19.20;55.80;;;;;;5026374;28;20027;-65
2024/02/10 07:11:19;;;;;;;0.68;0.38;;;19.20;55.70;;;;;;5024488;28;20037;-65
2024/02/10 07:13:44;;;;;;;0.60;0.47;;;19.20;55.70;;;;;;5027833;28;20061;-65
2024/02/10 07:16:10;;;;;;;0.95;0.80;;;19.20;55.70;;;;;;5024716;28;20120;-66
2024/02/10 07:18:47;;;;;;;0.70;0.52;;;19.20;55.70;;;;;;5023086;28;20030;-65
2024/02/10 07:21:13;;;;;;;0.55;0.43;;;19.20;55.70;;;;;;5025535;28;20108;-65
2024/02/10 07:23:40;;;;;;;0.82;0.50;;;19.10;55.60;;;;;;5020771;28;20112;-65
2024/02/10 07:26:05;;;;;;;0.40;0.30;;;19.20;55.70;;;;;;5028472;28;20328;-64
2024/02/10 07:28:31;;;;;;;1.42;0.60;;;19.20;55.70;;;;;;5025707;28;20041;-65
2024/02/10 07:30:57;;;;;;;1.38;0.70;;;19.20;55.70;;;;;;5019321;28;20037;-63
2024/02/10 07:33:24;;;;;;;0.70;0.63;;;19.10;55.60;;;;;;5023350;28;20076;-66
2024/02/10 07:35:50;;;;;;;0.90;0.45;;;19.20;55.70;;;;;;5023375;28;20143;-65
2024/02/10 07:38:20;;;;;;;1.30;0.93;;;19.20;55.70;;;;;;5006381;28;20029;-66
2024/02/10 07:40:46;;;;;;;0.85;0.55;;;19.20;55.70;;;;;;5019426;28;20120;-64
2024/02/10 07:43:16;;;;;;;0.75;0.60;;;19.10;55.60;;;;;;5021838;28;20112;-66
2024/02/10 07:45:44;;;;;;;0.50;0.50;;;19.20;55.60;;;;;;5021989;28;20029;-65
2024/02/10 07:48:10;;;;;;;0.63;0.43;;;19.20;55.70;;;;;;5023147;28;20121;-64
2024/02/10 07:50:41;;;;;;;0.60;0.50;;;19.10;55.50;;;;;;5018935;28;20025;-66
2024/02/10 07:53:10;;;;;;;1.15;0.70;;;19.10;55.50;;;;;;5019105;28;20034;-67
2024/02/10 07:55:37;;;;;;;2.42;0.60;;;19.20;55.60;;;;;;5020434;28;20404;-66
2024/02/10 07:58:04;;;;;;;0.70;0.50;;;19.20;55.60;;;;;;5007490;28;20033;-66
2024/02/10 08:00:32;;;;;;;0.68;0.68;;;19.20;55.60;;;;;;4998597;28;20167;-66
2024/02/10 08:02:59;;;;;;;2.08;0.60;;;19.20;55.60;;;;;;5007002;28;20423;-67
2024/02/10 08:05:25;;;;;;;0.73;0.63;;;19.20;55.60;;;;;;5019013;28;20120;-68
2024/02/10 08:07:50;;;;;;;0.80;0.73;;;19.20;55.60;;;;;;5003449;28;20562;-67
2024/02/10 08:10:18;;;;;;;1.20;0.80;;;19.20;55.60;;;;;;5002517;28;20364;-66
2024/02/10 08:12:45;;;;;;;1.45;0.75;;;19.20;55.60;;;;;;5002321;28;20049;-67
2024/02/10 08:15:11;;;;;;;2.50;0.98;;;19.20;55.60;;;;;;5003426;28;20037;-67
2024/02/10 08:17:37;;;;;;;3.22;0.90;;;19.20;55.50;;;;;;5004919;28;20044;-65
2024/02/10 08:20:04;;;;;;;2.92;1.02;;;19.20;55.60;;;;;;5022592;28;20470;-66
2024/02/10 08:22:30;;;;;;;1.80;1.10;;;19.20;55.50;;;;;;5018393;28;20025;-67
2024/02/10 08:24:56;;;;;;;1.60;0.77;;;19.20;55.50;;;;;;5003802;28;20072;-66
2024/02/10 08:27:31;;;;;;;2.55;0.93;;;19.20;55.50;;;;;;5024509;28;20033;-68
2024/02/10 08:29:58;;;;;;;2.15;0.98;;;19.20;55.50;;;;;;5014971;28;20045;-68
2024/02/10 08:32:25;;;;;;;1.80;0.93;;;19.20;55.50;;;;;;5002705;28;20037;-66
2024/02/10 08:34:51;;;;;;;3.13;1.33;;;19.20;55.50;;;;;;5021858;28;20041;-67
2024/02/10 08:37:17;;;;;;;3.72;1.13;;;19.20;55.50;;;;;;5020823;28;20029;-69
2024/02/10 08:39:45;;;;;;;2.80;1.20;;;19.20;55.50;;;;;;5004707;28;20025;-67
2024/02/10 08:42:11;;;;;;;1.27;1.00;;;19.20;55.50;;;;;;5017041;28;20108;-67
2024/02/10 08:44:37;;;;;;;2.67;1.05;;;19.30;55.60;;;;;;5004503;28;20033;-67
2024/02/10 08:47:03;;;;;;;2.30;1.02;;;19.30;55.50;;;;;;5020394;28;20034;-67
2024/02/10 08:49:30;;;;;;;2.78;1.00;;;19.30;55.50;;;;;;5020892;28;20025;-68
2024/02/10 08:51:56;;;;;;;1.27;1.02;;;19.30;55.50;;;;;;5002990;28;20057;-68
2024/02/10 08:54:22;;;;;;;2.55;1.42;;;19.30;55.50;;;;;;5002157;28;20056;-67
2024/02/10 08:56:47;;;;;;;3.92;0.93;;;19.30;55.50;;;;;;5020401;28;20384;-68
2024/02/10 08:59:13;;;;;;;2.03;1.10;;;19.30;55.50;;;;;;5003095;28;20033;-64
2024/02/10 09:01:42;;;;;;;1.23;0.90;;;19.30;55.50;;;;;;5002585;28;20459;-67
2024/02/10 09:04:11;;;;;;;1.95;1.00;;;19.30;55.50;;;;;;5021246;28;20518;-68
2024/02/10 09:06:37;;;;;;;2.65;1.40;;;19.20;55.40;;;;;;5000986;28;20056;-67
2024/02/10 09:09:04;;;;;;;2.03;1.33;;;19.30;55.50;;;;;;5022200;28;20203;-68
2024/02/10 09:11:37;;;;;;;3.30;1.60;;;19.20;55.40;;;;;;5021081;28;20025;-68
2024/02/10 09:14:03;;;;;;;1.83;1.25;;;19.30;55.50;;;;;;5018689;28;20038;-67
2024/02/10 09:16:30;;;;;;;1.50;1.08;;;19.20;55.40;;;;;;5004567;28;20044;-68
2024/02/10 09:18:56;;;;;;;3.30;1.30;;;19.20;55.40;;;;;;5020718;28;20069;-67
2024/02/10 09:21:22;;;;;;;3.45;1.42;;;19.30;55.50;;;;;;5004515;28;20063;-67
2024/02/10 09:23:47;;;;;;;1.92;1.15;;;19.30;55.40;;;;;;5020998;28;20030;-68
2024/02/10 09:26:16;;;;;;;2.25;1.30;;;19.30;55.50;;;;;;5004544;28;20343;-67
2024/02/10 09:28:47;;;;;;;2.42;1.42;;;19.30;55.40;;;;;;5016300;28;20045;-67
2024/02/10 09:31:13;;;;;;;2.65;1.08;;;19.30;55.50;;;;;;5002495;28;20125;-68
2024/02/10 09:33:43;;;;;;;3.08;1.33;;;19.30;55.40;;;;;;4986299;28;20064;-67
2024/02/10 09:36:12;;;;;;;3.20;1.42;;;19.30;55.50;;;;;;5001087;28;20051;-67
2024/02/10 09:38:39;;;;;;;3.92;1.67;;;19.20;55.50;;;;;;5019972;28;20040;-65
2024/02/10 09:41:07;;;;;;;2.47;1.38;;;19.20;55.50;;;;;;4999197;28;20101;-66
2024/02/10 09:43:36;;;;;;;3.20;1.85;;;19.20;55.60;;;;;;5003286;28;20272;-67
2024/02/10 09:46:06;;;;;;;3.50;1.83;;;19.20;55.70;;;;;;5004760;28;20443;-66
2024/02/10 09:48:41;;;;;;;6.07;2.13;;;19.10;55.70;;;;;;5005028;28;20054;-66
2024/02/10 09:51:07;;;;;;;3.22;1.77;;;19.10;55.80;;;;;;5001954;28;20056;-66
2024/02/10 09:53:34;;;;;;;8.20;2.58;;;19.10;55.90;;;;;;5020739;28;20061;-66
2024/02/10 09:55:59;;;;;;;3.08;2.00;;;19.10;55.90;;;;;;5018993;28;20080;-65
2024/02/10 09:58:26;;;;;;;4.97;2.13;;;19.00;55.90;;;;;;4983324;28;20041;-66
2024/02/10 10:00:52;;;;;;;6.40;2.90;;;19.00;56.00;;;;;;5023119;28;20042;-67
2024/02/10 10:03:18;;;;;;;6.22;2.30;;;19.00;56.00;;;;;;5019238;28;20539;-67
2024/02/10 10:05:45;;;;;;;4.50;1.88;;;19.00;56.10;;;;;;5007890;28;20037;-66
2024/02/10 10:08:11;;;;;;;4.95;2.17;;;19.00;56.20;;;;;;5023479;28;20033;-68
2024/02/10 10:10:37;;;;;;;3.95;1.90;;;19.00;56.20;;;;;;5020026;28;20080;-66
2024/02/10 10:13:05;;;;;;;3.67;2.17;;;19.00;56.20;;;;;;5023598;28;20041;-66
2024/02/10 10:15:31;;;;;;;4.50;2.42;;;19.00;56.20;;;;;;5019820;28;20045;-66
2024/02/10 10:17:56;;;;;;;6.35;2.53;;;19.00;56.30;;;;;;5004611;28;20045;-66
2024/02/10 10:20:23;;;;;;;6.03;2.22;;;18.90;56.20;;;;;;5021925;28;20033;-65
2024/02/10 10:22:50;;;;;;;5.88;1.95;;;18.90;56.30;;;;;;5018923;28;20037;-66
2024/02/10 10:25:16;;;;;;;6.40;1.80;;;18.90;56.30;;;;;;5005078;28;20068;-66
2024/02/10 10:27:41;;;;;;;4.72;2.25;;;19.00;56.30;;;;;;5018855;28;20054;-66
2024/02/10 10:30:11;;;;;;;3.88;2.15;;;19.00;56.20;;;;;;5018191;28;20307;-67
2024/02/10 10:32:42;;;;;;;6.63;1.98;;;19.00;56.10;;;;;;5000462;28;20374;-64
2024/02/10 10:35:11;;;;;;;7.57;2.30;;;19.00;56.00;;;;;;5023342;28;20026;-66
2024/02/10 10:37:37;;;;;;;4.13;2.40;;;19.10;56.00;;;;;;5022173;28;20113;-66
2024/02/10 10:40:05;;;;;;;6.80;2.50;;;19.10;55.90;;;;;;5023596;28;20116;-65
2024/02/10 10:42:31;;;;;;;5.80;2.17;;;19.20;55.80;;;;;;5017729;28;20064;-66
2024/02/10 10:44:58;;;;;;;7.05;3.13;;;19.20;55.60;;;;;;5016344;28;20065;-65
2024/02/10 10:47:24;;;;;;;5.00;2.30;;;19.30;55.60;;;;;;5018583;28;20089;-65
2024/02/10 10:49:51;;;;;;;5.57;2.50;;;19.40;55.50;;;;;;5022016;28;20030;-65
2024/02/10 10:52:20;;;;;;;7.07;2.45;;;19.40;55.60;;;;;;5017419;28;20045;-65
2024/02/10 10:54:49;;;;;;;5.45;2.28;;;19.40;55.40;;;;;;5022197;28;20052;-65
2024/02/10 10:57:23;;;;;;;4.65;2.25;;;19.40;55.30;;;;;;5010323;28;20068;-63
2024/02/10 11:00:10;;;;;;;7.47;2.30;;;19.50;55.20;;;;;;5010798;28;20105;-66
2024/02/10 11:02:36;;;;;;;6.40;2.58;;;19.50;55.20;;;;;;5008696;28;20033;-65
2024/02/10 11:05:03;;;;;;;4.78;2.80;;;19.50;55.10;;;;;;5019613;28;20033;-66
2024/02/10 11:07:33;;;;;;;6.00;2.55;;;19.60;55.10;;;;;;5025950;28;20452;-66
2024/02/10 11:09:58;;;;;;;5.25;3.17;;;19.60;55.00;;;;;;5021665;28;20378;-65
2024/02/10 11:12:31;;;;;;;5.18;2.08;;;19.60;55.00;;;;;;5024670;28;20088;-65
2024/02/10 11:14:57;;;;;;;5.45;2.85;;;19.70;54.90;;;;;;5023776;28;20045;-62
2024/02/10 11:17:24;;;;;;;7.57;2.45;;;19.70;54.80;;;;;;5026452;28;20140;-65
2024/02/10 11:20:03;;;;;;;6.30;2.55;;;19.70;54.80;;;;;;5021863;28;20527;-65
2024/02/10 11:22:42;;;;;;;6.00;2.60;;;19.80;54.90;;;;;;5024351;28;20264;-66
2024/02/10 11:25:11;;;;;;;5.70;2.30;;;19.80;55.50;;;;;;5021364;28;20033;-65
2024/02/10 11:27:41;;;;;;;5.20;2.70;;;19.70;54.80;;;;;;5004423;28;20044;-65
2024/02/10 11:30:07;;;;;;;3.30;2.30;;;19.80;54.80;;;;;;5019325;28;20051;-66
2024/02/10 11:32:33;;;;;;;6.72;2.42;;;19.80;54.80;;;;;;5023486;28;20041;-65
2024/02/10 11:34:59;;;;;;;5.55;2.60;;;19.70;54.80;;;;;;5022296;28;20117;-65
2024/02/10 11:37:26;;;;;;;3.67;2.22;;;19.70;54.90;;;;;;5023181;28;20140;-64
2024/02/10 11:39:53;;;;;;;5.43;2.38;;;19.80;54.90;;;;;;5019176;28;20037;-64
2024/02/10 11:42:20;;;;;;;4.15;2.22;;;19.70;54.90;;;;;;5023632;28;20021;-64
2024/02/10 11:44:46;;;;;;;5.40;2.30;;;19.70;55.00;;;;;;5019850;28;20485;-63
2024/02/10 11:47:11;;;;;;;6.35;2.75;;;19.70;55.00;;;;;;5023002;28;20039;-65
2024/02/10 11:49:40;;;;;;;5.90;2.30;;;19.70;55.00;;;;;;5022017;28;20425;-64
2024/02/10 11:52:07;;;;;;;5.03;2.35;;;19.70;55.20;;;;;;5021149;28;20396;-64
2024/02/10 11:54:36;;;;;;;4.25;2.88;;;19.70;55.10;;;;;;5016659;28;20033;-64
2024/02/10 11:57:05;;;;;;;5.28;2.65;;;19.70;55.20;;;;;;5014016;28;20346;-65
2024/02/10 11:59:37;;;;;;;6.18;3.15;;;19.70;55.20;;;;;;5013071;28;20026;-65
2024/02/10 12:02:02;;;;;;;4.65;2.22;;;19.70;55.20;;;;;;5013596;28;20034;-65
2024/02/10 12:04:32;;;;;;;4.63;2.47;;;19.70;55.30;;;;;;5015934;28;20033;-69
2024/02/10 12:06:58;;;;;;;10.95;2.80;;;19.70;55.30;;;;;;5016318;28;20420;-65
2024/02/10 12:09:25;;;;;;;7.47;2.92;;;19.80;57.80;;;;;;4994883;28;20037;-65
2024/02/10 12:12:00;;;;;;;10.23;2.90;;;19.90;57.70;;;;;;5017245;28;20026;-65
2024/02/10 12:14:28;;;;;;;7.30;3.60;;;19.90;57.70;;;;;;5014481;28;20037;-66
2024/02/10 12:17:00;;;;;;;7.07;3.08;;;19.90;57.70;;;;;;5023177;28;20041;-65
2024/02/10 12:19:27;;;;;;;10.80;3.70;;;19.90;57.70;;;;;;5013160;28;20727;-66
2024/02/10 12:21:52;;;;;;;6.47;3.13;;;19.90;57.80;;;;;;5014153;28;20034;-66
2024/02/10 12:24:21;;;;;;;4.63;2.90;;;19.90;57.90;;;;;;5013928;28;20088;-66
2024/02/10 12:26:47;;;;;;;7.72;4.03;;;19.90;58.20;;;;;;5014518;28;20030;-68
2024/02/10 12:29:13;;;;;;;9.98;3.55;;;19.90;58.20;;;;;;4982484;28;20029;-66
2024/02/10 12:31:39;;;;;;;5.95;3.33;;;19.90;58.20;;;;;;5013018;28;20026;-62
2024/02/10 12:34:06;;;;;;;7.53;3.20;;;19.90;58.30;;;;;;5013910;28;20041;-66
2024/02/10 12:36:33;;;;;;;5.85;4.00;;;19.90;58.60;;;;;;5017815;28;20044;-65
2024/02/10 12:38:59;;;;;;;11.70;4.60;;;19.90;59.60;;;;;;5011746;28;20526;-67
2024/02/10 12:41:24;;;;;;;7.95;4.70;;;20.00;59.70;;;;;;5009691;28;20610;-66
2024/02/10 12:43:52;;;;;;;7.40;4.65;;;19.90;59.50;;;;;;5011457;28;20041;-65
2024/02/10 12:46:18;;;;;;;9.73;4.75;;;19.90;59.70;;;;;;5008602;28;20042;-66